Time;durP1;ratioP1;P1;durP2;ratioP2;P2;SDS_P1;SDS_P2;PMS_P1;PMS_P2;Temp;Humidity;BMP_temperature;BMP_pressure;BME280_temperature;BME280_humidity;BME280_pressure;Samples;Min_cycle;Max_cycle;Signal;HPM_P1;HPM_P2
2023/05/14 00:03:53;;;;;;;8.68;6.10;;;;;;;-146.18;100.00;67994.34;10204318;28;20426;-77
2023/05/14 00:08:49;;;;;;;7.65;5.95;;;;;;;-146.18;100.00;67994.34;10212287;28;20137;-77
2023/05/14 00:13:46;;;;;;;10.55;6.32;;;;;;;-146.18;100.00;67994.34;10203061;28;20471;-77
2023/05/14 00:18:42;;;;;;;9.40;6.90;;;;;;;-146.18;100.00;67994.34;10181990;28;20058;-76
2023/05/14 00:23:39;;;;;;;8.93;6.60;;;;;;;-146.18;100.00;67994.34;10201687;28;20041;-76
2023/05/14 00:28:35;;;;;;;11.82;7.78;;;;;;;-146.18;100.00;67994.34;10237016;28;20057;-76
2023/05/14 00:33:32;;;;;;;9.55;6.60;;;;;;;-146.18;100.00;67994.34;10212443;28;20128;-76
2023/05/14 00:38:28;;;;;;;8.20;6.95;;;;;;;-146.18;100.00;67994.34;10236217;28;20434;-76
2023/05/14 00:43:26;;;;;;;11.18;7.40;;;;;;;-146.18;100.00;67994.34;10211288;28;20053;-77
2023/05/14 00:48:25;;;;;;;11.82;7.18;;;;;;;-146.18;100.00;67994.34;10236293;28;20057;-76
2023/05/14 00:53:21;;;;;;;9.30;6.90;;;;;;;-146.18;100.00;67994.34;10200384;28;20518;-76
2023/05/14 00:58:18;;;;;;;7.97;6.55;;;;;;;-146.18;100.00;67994.34;10218860;28;20057;-76
2023/05/14 01:03:14;;;;;;;9.65;7.07;;;;;;;-146.18;100.00;67994.34;10196561;28;20061;-76
2023/05/14 01:08:26;;;;;;;8.93;7.68;;;;;;;-146.18;100.00;67994.34;10195569;28;20141;-76
2023/05/14 01:13:28;;;;;;;9.20;6.72;;;;;;;-146.18;100.00;67994.34;10197318;28;20050;-76
2023/05/14 01:18:27;;;;;;;10.70;7.38;;;;;;;-146.18;100.00;67994.34;10194217;28;20082;-76
2023/05/14 01:23:23;;;;;;;8.98;7.15;;;;;;;-146.18;100.00;67994.34;10197514;28;20692;-76
2023/05/14 01:28:31;;;;;;;8.75;7.05;;;;;;;-146.18;100.00;67994.34;10234534;28;20045;-76
2023/05/14 01:33:29;;;;;;;9.50;7.15;;;;;;;-146.18;100.00;67994.34;10217101;28;20052;-76
2023/05/14 01:38:29;;;;;;;7.00;6.28;;;;;;;-146.18;100.00;67994.34;10233902;28;20117;-77
2023/05/14 01:43:26;;;;;;;6.85;6.15;;;;;;;-146.18;100.00;67994.34;10211957;28;20049;-76
2023/05/14 01:48:22;;;;;;;9.32;6.75;;;;;;;-146.18;100.00;67994.34;10233700;28;20096;-76
2023/05/14 01:53:19;;;;;;;7.50;6.68;;;;;;;-146.18;100.00;67994.34;10197370;28;20050;-76
2023/05/14 01:58:16;;;;;;;7.32;6.32;;;;;;;-146.18;100.00;67994.34;10193484;28;20381;-76
2023/05/14 02:03:12;;;;;;;8.60;6.85;;;;;;;-146.18;100.00;67994.34;10194292;28;20053;-76
2023/05/14 02:08:08;;;;;;;7.00;6.18;;;;;;;-146.18;100.00;67994.34;10226576;28;20161;-76
2023/05/14 02:13:05;;;;;;;11.48;7.93;;;;;;;-146.18;100.00;67994.34;10193052;28;20073;-76
2023/05/14 02:18:01;;;;;;;7.55;6.72;;;;;;;-146.18;100.00;67994.34;10192619;28;20045;-76
2023/05/14 02:22:58;;;;;;;7.95;6.30;;;;;;;-146.18;100.00;67994.34;10192689;28;20579;-76
2023/05/14 02:27:54;;;;;;;7.57;6.78;;;;;;;-146.18;100.00;67994.34;10203576;28;20471;-76
2023/05/14 02:32:51;;;;;;;7.70;6.68;;;;;;;-146.18;100.00;67994.34;10192976;28;20519;-76
2023/05/14 02:37:47;;;;;;;7.45;6.70;;;;;;;-146.18;100.00;67994.34;10192127;28;20073;-77
2023/05/14 02:42:44;;;;;;;9.43;6.72;;;;;;;-146.18;100.00;67994.34;10192624;28;20071;-76
2023/05/14 02:47:41;;;;;;;7.57;6.75;;;;;;;-146.18;100.00;67994.34;10229390;28;20061;-76
2023/05/14 02:52:37;;;;;;;9.00;6.85;;;;;;;-146.18;100.00;67994.34;10232175;28;20049;-76
2023/05/14 02:57:34;;;;;;;9.23;6.63;;;;;;;-146.18;100.00;67994.34;10214926;28;20053;-77
2023/05/14 03:02:30;;;;;;;7.40;6.60;;;;;;;-146.18;100.00;67994.34;10225081;28;20060;-76
2023/05/14 03:07:27;;;;;;;9.45;7.18;;;;;;;-146.18;100.00;67994.34;10233886;28;20053;-76
2023/05/14 03:12:23;;;;;;;13.45;7.20;;;;;;;-146.18;100.00;67994.34;10221931;28;20579;-76
2023/05/14 03:17:20;;;;;;;9.90;6.70;;;;;;;-146.18;100.00;67994.34;10234312;28;20049;-76
2023/05/14 03:22:16;;;;;;;9.98;6.95;;;;;;;-146.18;100.00;67994.34;10207831;28;20053;-76
2023/05/14 03:27:13;;;;;;;9.38;6.95;;;;;;;-146.18;100.00;67994.34;10229792;28;20053;-76
2023/05/14 03:32:09;;;;;;;7.60;6.57;;;;;;;-146.18;100.00;67994.34;10199104;28;20133;-76
2023/05/14 03:37:06;;;;;;;9.43;7.63;;;;;;;-146.18;100.00;67994.34;10226152;28;20108;-76
2023/05/14 03:42:02;;;;;;;10.85;7.30;;;;;;;-146.18;100.00;67994.34;10198930;28;20120;-76
2023/05/14 03:46:59;;;;;;;7.90;6.97;;;;;;;-146.18;100.00;67994.34;10223410;28;20132;-76
2023/05/14 03:51:57;;;;;;;8.80;7.07;;;;;;;-146.18;100.00;67994.34;10198775;28;20057;-76
2023/05/14 03:56:53;;;;;;;9.63;7.57;;;;;;;-146.18;100.00;67994.34;10213008;28;20586;-76
2023/05/14 04:01:49;;;;;;;7.93;7.15;;;;;;;-146.18;100.00;67994.34;10180892;28;20145;-76
2023/05/14 04:06:46;;;;;;;8.63;7.82;;;;;;;-146.18;100.00;67994.34;10232573;28;20111;-76
2023/05/14 04:11:43;;;;;;;9.43;7.75;;;;;;;-146.18;100.00;67994.34;10236632;28;20045;-76
2023/05/14 04:16:39;;;;;;;7.55;6.75;;;;;;;-146.18;100.00;67994.34;10237545;28;20160;-76
2023/05/14 04:21:36;;;;;;;8.30;7.47;;;;;;;-146.18;100.00;67994.34;10203969;28;20069;-77
2023/05/14 04:26:32;;;;;;;8.98;7.32;;;;;;;-146.18;100.00;67994.34;10212378;28;20500;-76
2023/05/14 04:31:31;;;;;;;9.20;7.25;;;;;;;-146.18;100.00;67994.34;10204582;28;20050;-76
2023/05/14 04:36:28;;;;;;;8.05;7.25;;;;;;;-146.18;100.00;67994.34;10218654;28;20181;-76
2023/05/14 04:41:25;;;;;;;9.00;8.10;;;;;;;-146.18;100.00;67994.34;10197223;28;20064;-76
2023/05/14 04:46:21;;;;;;;10.13;8.52;;;;;;;-146.18;100.00;67994.34;10220899;28;20468;-76
2023/05/14 04:51:17;;;;;;;7.80;6.82;;;;;;;-146.18;100.00;67994.34;10236807;28;20065;-76
2023/05/14 04:56:14;;;;;;;9.43;8.43;;;;;;;-146.18;100.00;67994.34;10235349;28;20882;-76
2023/05/14 05:01:11;;;;;;;9.15;8.25;;;;;;;-146.18;100.00;67994.34;10232194;28;20504;-76
2023/05/14 05:06:07;;;;;;;8.93;8.02;;;;;;;-146.18;100.00;67994.34;10220787;28;20581;-76
2023/05/14 05:11:05;;;;;;;11.38;8.23;;;;;;;-146.18;100.00;67994.34;10219748;28;20081;-76
2023/05/14 05:16:01;;;;;;;11.43;7.93;;;;;;;-146.18;100.00;67994.34;10219349;28;20049;-76
2023/05/14 05:20:58;;;;;;;8.98;8.07;;;;;;;-146.18;100.00;67994.34;10234386;28;20045;-76
2023/05/14 05:25:54;;;;;;;9.15;7.68;;;;;;;-146.18;100.00;67994.34;10234160;28;20100;-76
2023/05/14 05:30:51;;;;;;;10.45;9.10;;;;;;;-146.18;100.00;67994.34;10217381;28;20112;-76
2023/05/14 05:35:48;;;;;;;8.95;8.02;;;;;;;-146.18;100.00;67994.34;10234943;28;20057;-76
2023/05/14 05:40:45;;;;;;;9.80;8.38;;;;;;;-146.18;100.00;67994.34;10196019;28;20081;-76
2023/05/14 05:45:41;;;;;;;14.50;8.40;;;;;;;-146.18;100.00;67994.34;10214421;28;20132;-76
2023/05/14 05:50:38;;;;;;;9.05;7.90;;;;;;;-146.18;100.00;67994.34;10234470;28;20069;-77
2023/05/14 05:55:34;;;;;;;9.57;8.43;;;;;;;-146.18;100.00;67994.34;10215557;28;20121;-76
2023/05/14 06:00:31;;;;;;;8.38;7.57;;;;;;;-146.18;100.00;67994.34;10234481;28;20050;-76
2023/05/14 06:05:27;;;;;;;8.30;7.60;;;;;;;-146.18;100.00;67994.34;10218581;28;20056;-77
2023/05/14 06:10:24;;;;;;;7.95;7.15;;;;;;;-146.18;100.00;67994.34;10192810;28;20081;-76
2023/05/14 06:15:21;;;;;;;8.88;7.97;;;;;;;-146.18;100.00;67994.34;10194356;28;20119;-76
2023/05/14 06:20:18;;;;;;;7.97;7.28;;;;;;;-146.18;100.00;67994.34;10193602;28;20050;-76
2023/05/14 06:25:14;;;;;;;9.40;7.68;;;;;;;-146.18;100.00;67994.34;10210603;28;20122;-76
2023/05/14 06:30:11;;;;;;;8.23;7.43;;;;;;;-146.18;100.00;67994.34;10232995;28;20104;-77
2023/05/14 06:35:08;;;;;;;7.82;7.03;;;;;;;-146.18;100.00;67994.34;10213850;28;20054;-76
2023/05/14 06:40:07;;;;;;;7.65;6.95;;;;;;;-146.18;100.00;67994.34;10232173;28;20148;-75
2023/05/14 06:45:04;;;;;;;7.80;6.60;;;;;;;-146.18;100.00;67994.34;10216135;28;20179;-76
2023/05/14 06:50:01;;;;;;;8.20;6.78;;;;;;;-146.18;100.00;67994.34;10218389;28;20519;-76
2023/05/14 06:54:57;;;;;;;8.23;7.28;;;;;;;-146.18;100.00;67994.34;10190261;28;20053;-76
2023/05/14 06:59:54;;;;;;;7.90;7.20;;;;;;;-146.18;100.00;67994.34;10198955;28;20062;-76
2023/05/14 07:04:50;;;;;;;7.55;6.85;;;;;;;-146.18;100.00;67994.34;10206597;28;20082;-77
2023/05/14 07:09:47;;;;;;;7.40;6.70;;;;;;;-146.18;100.00;67994.34;10198506;28;20144;-76
2023/05/14 07:14:43;;;;;;;7.78;6.97;;;;;;;-146.18;100.00;67994.34;10204524;28;20060;-76
2023/05/14 07:19:40;;;;;;;7.28;6.57;;;;;;;-146.18;100.00;67994.34;10174773;28;20073;-77
2023/05/14 07:24:36;;;;;;;8.02;6.70;;;;;;;-146.18;100.00;67994.34;10204474;28;20546;-76
2023/05/14 07:29:33;;;;;;;6.88;6.22;;;;;;;-146.18;100.00;67994.34;10214778;28;20140;-76
2023/05/14 07:34:30;;;;;;;9.90;6.80;;;;;;;-146.18;100.00;67994.34;10231527;28;20049;-77
2023/05/14 07:39:26;;;;;;;7.68;6.63;;;;;;;-146.18;100.00;67994.34;10222941;28;20069;-77
2023/05/14 07:44:23;;;;;;;7.53;6.82;;;;;;;-146.18;100.00;67994.34;10202208;28;20444;-77
2023/05/14 07:49:19;;;;;;;7.70;7.00;;;;;;;-146.18;100.00;67994.34;10222882;28;20574;-76
2023/05/14 07:54:16;;;;;;;7.95;7.00;;;;;;;-146.18;100.00;67994.34;10208424;28;20140;-77
2023/05/14 07:59:12;;;;;;;8.18;7.30;;;;;;;-146.18;100.00;67994.34;10237806;28;20052;-77
2023/05/14 08:04:10;;;;;;;7.93;7.22;;;;;;;-146.18;100.00;67994.34;10238595;28;20627;-77
2023/05/14 08:09:07;;;;;;;8.20;6.95;;;;;;;-146.18;100.00;67994.34;10198986;28;20050;-76
2023/05/14 08:14:03;;;;;;;6.63;6.03;;;;;;;-146.18;100.00;67994.34;10206666;28;20057;-77
2023/05/14 08:19:00;;;;;;;7.90;6.78;;;;;;;-146.18;100.00;67994.34;10237847;28;20057;-77
2023/05/14 08:23:56;;;;;;;7.28;6.68;;;;;;;-146.18;100.00;67994.34;10195683;28;20060;-76
2023/05/14 08:28:53;;;;;;;6.65;6.07;;;;;;;-146.18;100.00;67994.34;10197101;28;20058;-76
2023/05/14 08:33:50;;;;;;;8.40;6.35;;;;;;;-146.18;100.00;67994.34;10203414;28;20057;-76
2023/05/14 08:38:49;;;;;;;8.95;6.22;;;;;;;-146.18;100.00;67994.34;10236587;28;20046;-76
2023/05/14 08:44:00;;;;;;;7.50;6.82;;;;;;;-146.18;100.00;67994.34;10236883;28;20073;-76
2023/05/14 08:49:16;;;;;;;11.73;6.40;;;;;;;-146.18;100.00;67994.34;10213561;28;20837;-77
2023/05/14 08:54:15;;;;;;;10.13;6.07;;;;;;;-146.18;100.00;67994.34;10196206;28;20073;-76
2023/05/14 08:59:12;;;;;;;7.30;6.50;;;;;;;-146.18;100.00;67994.34;10194711;28;20054;-76
2023/05/14 09:04:10;;;;;;;6.45;5.80;;;;;;;-146.18;100.00;67994.34;10214391;28;20072;-77
2023/05/14 09:09:06;;;;;;;7.65;6.38;;;;;;;-146.18;100.00;67994.34;10235632;28;20068;-76
2023/05/14 09:14:03;;;;;;;9.73;6.38;;;;;;;-146.18;100.00;67994.34;10207270;28;20076;-77
2023/05/14 09:18:59;;;;;;;6.50;5.45;;;;;;;-146.18;100.00;67994.34;10231752;28;20123;-76
2023/05/14 09:23:56;;;;;;;7.32;6.53;;;;;;;-146.18;100.00;67994.34;10202320;28;20115;-76
2023/05/14 09:28:55;;;;;;;6.32;5.72;;;;;;;-146.18;100.00;67994.34;10227676;28;20064;-76
2023/05/14 09:33:52;;;;;;;5.97;5.35;;;;;;;-146.18;100.00;67994.34;10201123;28;20115;-76
2023/05/14 09:38:48;;;;;;;7.78;6.53;;;;;;;-146.18;100.00;67994.34;10224793;28;20257;-76
2023/05/14 09:43:45;;;;;;;6.25;5.47;;;;;;;-146.18;100.00;67994.34;10234187;28;20507;-76
2023/05/14 09:48:41;;;;;;;7.25;5.40;;;;;;;-146.18;100.00;67994.34;10196833;28;20049;-76
2023/05/14 09:53:40;;;;;;;7.93;5.50;;;;;;;-146.18;100.00;67994.34;10180987;28;20049;-77
2023/05/14 09:58:36;;;;;;;7.15;5.65;;;;;;;-146.18;100.00;67994.34;10216619;28;20053;-76
2023/05/14 10:03:33;;;;;;;7.10;5.45;;;;;;;-146.18;100.00;67994.34;10192480;28;20570;-76
2023/05/14 10:08:33;;;;;;;10.05;6.05;;;;;;;-146.18;100.00;67994.34;10233681;28;20404;-75
2023/05/14 10:13:40;;;;;;;5.53;5.00;;;;;;;-146.18;100.00;67994.34;10198012;28;20574;-74
2023/05/14 10:18:41;;;;;;;7.03;6.32;;;;;;;-146.18;100.00;67994.34;10221372;28;20045;-75
2023/05/14 10:23:41;;;;;;;6.37;5.47;;;;;;;-146.18;100.00;67994.34;10197629;28;20076;-75
2023/05/14 10:28:38;;;;;;;7.60;5.50;;;;;;;-146.18;100.00;67994.34;10231697;28;20080;-75
2023/05/14 10:33:53;;;;;;;6.63;5.93;;;;;;;-146.18;100.00;67994.34;10232977;28;20045;-75
2023/05/14 10:38:56;;;;;;;6.97;5.80;;;;;;;-146.18;100.00;67994.34;10197549;28;20603;-76
2023/05/14 10:43:52;;;;;;;6.05;5.07;;;;;;;-146.18;100.00;67994.34;10197666;28;20078;-76
2023/05/14 10:48:49;;;;;;;5.85;5.32;;;;;;;-146.18;100.00;67994.34;10192847;28;20053;-75
2023/05/14 10:53:46;;;;;;;7.03;5.53;;;;;;;-146.18;100.00;67994.34;10197733;28;20073;-76
2023/05/14 10:58:44;;;;;;;6.07;5.20;;;;;;;-146.18;100.00;67994.34;10192420;28;20073;-76
2023/05/14 11:03:43;;;;;;;9.95;5.78;;;;;;;-146.18;100.00;67994.34;10176868;28;20463;-77
2023/05/14 11:08:40;;;;;;;7.40;6.65;;;;;;;-146.18;100.00;67994.34;10191934;28;20083;-76
2023/05/14 11:13:37;;;;;;;6.65;6.05;;;;;;;-146.18;100.00;67994.34;10191876;28;20133;-76
2023/05/14 11:18:37;;;;;;;6.95;6.00;;;;;;;-146.18;100.00;67994.34;10191976;28;20494;-76
2023/05/14 11:23:34;;;;;;;6.75;6.03;;;;;;;-146.18;100.00;67994.34;10199578;28;20125;-76
2023/05/14 11:28:30;;;;;;;10.80;6.30;;;;;;;-146.18;100.00;67994.34;10239636;28;20057;-76
2023/05/14 11:33:27;;;;;;;7.90;5.80;;;;;;;-146.18;100.00;67994.34;10207076;28;20056;-76
2023/05/14 11:38:26;;;;;;;8.43;6.53;;;;;;;-146.18;100.00;67994.34;10226071;28;20064;-77
2023/05/14 11:43:23;;;;;;;6.72;6.05;;;;;;;-146.18;100.00;67994.34;10201566;28;20050;-76
2023/05/14 11:48:21;;;;;;;9.93;6.38;;;;;;;-146.18;100.00;67994.34;10196641;28;20050;-77
2023/05/14 11:53:28;;;;;;;7.30;6.15;;;;;;;-146.18;100.00;67994.34;10198353;28;20508;-76
2023/05/14 11:58:24;;;;;;;7.18;6.47;;;;;;;-146.18;100.00;67994.34;10198216;28;20054;-76
2023/05/14 12:03:25;;;;;;;10.15;6.88;;;;;;;-146.18;100.00;67994.34;10200407;28;20085;-77
2023/05/14 12:08:25;;;;;;;10.30;5.97;;;;;;;-146.18;100.00;67994.34;10238402;28;20050;-77
2023/05/14 12:13:28;;;;;;;7.10;5.53;;;;;;;-146.18;100.00;67994.34;10224722;28;20441;-77
2023/05/14 12:18:27;;;;;;;8.07;5.93;;;;;;;-146.18;100.00;67994.34;10237786;28;20061;-76
2023/05/14 12:23:28;;;;;;;7.90;6.10;;;;;;;-146.18;100.00;67994.34;10210053;28;20050;-77
2023/05/14 12:28:25;;;;;;;5.97;5.47;;;;;;;-146.18;100.00;67994.34;10219945;28;20699;-76
2023/05/14 12:33:22;;;;;;;7.07;6.00;;;;;;;-146.18;100.00;67994.34;10218744;28;20695;-76
2023/05/14 12:38:19;;;;;;;7.80;5.78;;;;;;;-146.18;100.00;67994.34;10234875;28;20054;-76
2023/05/14 12:43:15;;;;;;;8.27;6.30;;;;;;;-146.18;100.00;67994.34;10198384;28;20042;-76
2023/05/14 12:48:12;;;;;;;6.82;6.13;;;;;;;-146.18;100.00;67994.34;10226924;28;20104;-76
2023/05/14 12:53:08;;;;;;;8.32;6.05;;;;;;;-146.18;100.00;67994.34;10195801;28;20568;-76
2023/05/14 12:58:05;;;;;;;7.10;6.10;;;;;;;-146.18;100.00;67994.34;10218690;28;20056;-76
2023/05/14 13:03:01;;;;;;;8.55;6.13;;;;;;;-146.18;100.00;67994.34;10195664;28;20045;-76
2023/05/14 13:08:01;;;;;;;6.13;5.53;;;;;;;-146.18;100.00;67994.34;10198856;28;20100;-77
2023/05/14 13:12:57;;;;;;;6.07;5.30;;;;;;;-146.18;100.00;67994.34;10195277;28;20053;-76
2023/05/14 13:17:54;;;;;;;8.80;6.10;;;;;;;-146.18;100.00;67994.34;10194957;28;20054;-76
2023/05/14 13:22:50;;;;;;;9.20;6.03;;;;;;;-146.18;100.00;67994.34;10177628;28;20050;-76
2023/05/14 13:27:49;;;;;;;6.35;5.55;;;;;;;-146.18;100.00;67994.34;10233086;28;20045;-76
2023/05/14 13:32:46;;;;;;;8.30;6.00;;;;;;;-146.18;100.00;67994.34;10205641;28;20088;-76
2023/05/14 13:37:43;;;;;;;6.55;5.90;;;;;;;-146.18;100.00;67994.34;10229098;28;20050;-76
2023/05/14 13:42:40;;;;;;;7.20;6.50;;;;;;;-146.18;100.00;67994.34;10194341;28;20046;-76
2023/05/14 13:47:36;;;;;;;5.85;5.00;;;;;;;-146.18;100.00;67994.34;10219943;28;20053;-76
2023/05/14 13:52:33;;;;;;;6.05;5.18;;;;;;;-146.18;100.00;67994.34;10194046;28;20538;-76
2023/05/14 13:57:29;;;;;;;5.95;5.30;;;;;;;-146.18;100.00;67994.34;10229333;28;20049;-76
2023/05/14 14:02:25;;;;;;;7.03;5.57;;;;;;;-146.18;100.00;67994.34;10233932;28;20137;-77
2023/05/14 14:07:22;;;;;;;7.35;5.25;;;;;;;-146.18;100.00;67994.34;10191624;28;20084;-76
2023/05/14 14:12:20;;;;;;;6.07;5.50;;;;;;;-146.18;100.00;67994.34;10175929;28;20278;-76
2023/05/14 14:17:20;;;;;;;6.40;5.45;;;;;;;-146.18;100.00;67994.34;10228137;28;20124;-76
2023/05/14 14:22:17;;;;;;;6.13;5.43;;;;;;;-146.18;100.00;67994.34;10220550;28;20072;-76
2023/05/14 14:27:13;;;;;;;6.10;5.47;;;;;;;-146.18;100.00;67994.34;10226774;28;20571;-76
2023/05/14 14:32:10;;;;;;;5.68;5.18;;;;;;;-146.18;100.00;67994.34;10232504;28;20097;-76
2023/05/14 14:37:06;;;;;;;6.13;5.13;;;;;;;-146.18;100.00;67994.34;10232554;28;20073;-76
2023/05/14 14:42:03;;;;;;;9.05;5.75;;;;;;;-146.18;100.00;67994.34;10198294;28;20504;-75
2023/05/14 14:46:59;;;;;;;7.20;6.50;;;;;;;-146.18;100.00;67994.34;10218717;28;20054;-75
2023/05/14 14:51:59;;;;;;;6.63;5.90;;;;;;;-146.18;100.00;67994.34;10192735;28;20559;-75
2023/05/14 14:56:55;;;;;;;5.88;5.25;;;;;;;-146.18;100.00;67994.34;10219209;28;20086;-75
2023/05/14 15:01:52;;;;;;;6.25;5.65;;;;;;;-146.18;100.00;67994.34;10221782;28;20080;-75
2023/05/14 15:06:48;;;;;;;7.25;5.78;;;;;;;-146.18;100.00;67994.34;10224245;28;20409;-75
2023/05/14 15:11:45;;;;;;;7.45;5.90;;;;;;;-146.18;100.00;67994.34;10198982;28;20100;-75
2023/05/14 15:16:42;;;;;;;6.05;5.45;;;;;;;-146.18;100.00;67994.34;10201162;28;20046;-75
2023/05/14 15:21:39;;;;;;;5.90;5.38;;;;;;;-146.18;100.00;67994.34;10200120;28;20046;-75
2023/05/14 15:26:35;;;;;;;6.53;5.90;;;;;;;-146.18;100.00;67994.34;10199185;28;20054;-75
2023/05/14 15:31:32;;;;;;;7.43;5.57;;;;;;;-146.18;100.00;67994.34;10199966;28;20137;-75
2023/05/14 15:36:28;;;;;;;7.50;5.50;;;;;;;-146.18;100.00;67994.34;10227387;28;20479;-75
2023/05/14 15:41:27;;;;;;;6.20;5.60;;;;;;;-146.18;100.00;67994.34;10222201;28;20583;-74
2023/05/14 15:46:24;;;;;;;6.90;6.00;;;;;;;-146.18;100.00;67994.34;10234335;28;20053;-74
2023/05/14 15:51:20;;;;;;;6.40;5.80;;;;;;;-146.18;100.00;67994.34;10239053;28;20053;-74
2023/05/14 15:56:17;;;;;;;7.35;6.07;;;;;;;-146.18;100.00;67994.34;10226878;28;20046;-75
2023/05/14 16:01:13;;;;;;;7.72;5.63;;;;;;;-146.18;100.00;67994.34;10237778;28;20051;-75
2023/05/14 16:06:10;;;;;;;9.80;5.85;;;;;;;-146.18;100.00;67994.34;10223685;28;20054;-75
2023/05/14 16:11:06;;;;;;;6.72;5.88;;;;;;;-146.18;100.00;67994.34;10228847;28;20245;-75
2023/05/14 16:16:03;;;;;;;6.25;5.65;;;;;;;-146.18;100.00;67994.34;10222061;28;20053;-75
2023/05/14 16:21:00;;;;;;;6.82;6.13;;;;;;;-146.18;100.00;67994.34;10223772;28;20053;-75
2023/05/14 16:25:57;;;;;;;6.97;6.25;;;;;;;-146.18;100.00;67994.34;10220842;28;20138;-74
2023/05/14 16:30:53;;;;;;;10.93;5.55;;;;;;;-146.18;100.00;67994.34;10236467;28;20543;-74
2023/05/14 16:35:50;;;;;;;7.50;6.43;;;;;;;-146.18;100.00;67994.34;10237247;28;20085;-74
2023/05/14 16:40:46;;;;;;;6.45;5.82;;;;;;;-146.18;100.00;67994.34;10218815;28;20045;-74
2023/05/14 16:45:43;;;;;;;8.68;5.70;;;;;;;-146.18;100.00;67994.34;10218053;28;20084;-74
2023/05/14 16:50:39;;;;;;;6.07;5.57;;;;;;;-146.18;100.00;67994.34;10204681;28;20052;-74
2023/05/14 16:55:36;;;;;;;6.25;5.72;;;;;;;-146.18;100.00;67994.34;10213937;28;20068;-74
2023/05/14 17:00:32;;;;;;;6.43;5.45;;;;;;;-146.18;100.00;67994.34;10196443;28;20500;-74
2023/05/14 17:05:28;;;;;;;7.28;5.35;;;;;;;-146.18;100.00;67994.34;10215676;28;20049;-74
2023/05/14 17:10:25;;;;;;;10.65;5.68;;;;;;;-146.18;100.00;67994.34;10218524;28;20045;-74
2023/05/14 17:15:22;;;;;;;8.60;5.55;;;;;;;-146.18;100.00;67994.34;10227617;28;20076;-74
2023/05/14 17:20:19;;;;;;;7.03;5.82;;;;;;;-146.18;100.00;67994.34;10234711;28;20627;-74
2023/05/14 17:25:15;;;;;;;9.10;5.65;;;;;;;-146.18;100.00;67994.34;10234516;28;20486;-75
2023/05/14 17:30:12;;;;;;;5.75;5.25;;;;;;;-146.18;100.00;67994.34;10225846;28;20149;-74
2023/05/14 17:35:09;;;;;;;6.40;5.80;;;;;;;-146.18;100.00;67994.34;10211836;28;20063;-74
2023/05/14 17:40:06;;;;;;;6.43;5.25;;;;;;;-146.18;100.00;67994.34;10224926;28;20561;-75
2023/05/14 17:45:09;;;;;;;7.30;5.15;;;;;;;;;;10307764;27;20608;-74
2023/05/14 17:50:06;;;;;;;9.15;5.55;;;;;;;;;;10223298;28;20053;-74
2023/05/14 17:55:02;;;;;;;8.27;5.57;;;;;;;;;;10220615;28;20049;-75
2023/05/14 17:59:58;;;;;;;6.53;5.78;;;;;;;;;;10189190;28;20097;-74
2023/05/14 18:04:55;;;;;;;6.50;5.90;;;;;;;;;;10213390;28;20415;-75
2023/05/14 18:09:51;;;;;;;5.82;5.32;;;;;;;;;;10186869;28;20104;-75
2023/05/14 18:14:47;;;;;;;6.53;5.57;;;;;;;;;;10195129;28;20129;-74
2023/05/14 18:19:43;;;;;;;8.05;5.35;;;;;;;;;;10186064;28;20364;-74
2023/05/14 18:24:40;;;;;;;6.85;5.28;;;;;;;;;;10212308;28;20120;-74
2023/05/14 18:29:36;;;;;;;6.90;5.88;;;;;;;;;;10257005;28;20638;-74
2023/05/14 18:34:37;;;;;;;6.40;5.72;;;;;;;;;;10210718;28;20120;-74
2023/05/14 18:39:33;;;;;;;6.68;5.90;;;;;;;;;;10235754;28;20390;-74
2023/05/14 18:44:30;;;;;;;6.53;5.70;;;;;;;;;;10208775;28;20076;-74
2023/05/14 18:49:26;;;;;;;7.22;5.88;;;;;;;;;;10214310;28;20042;-74
2023/05/14 18:54:22;;;;;;;6.32;5.72;;;;;;;;;;10206722;28;20076;-74
2023/05/14 18:59:19;;;;;;;5.78;4.97;;;;;;;;;;10172617;28;20068;-74
2023/05/14 19:04:15;;;;;;;6.00;5.32;;;;;;;;;;10160298;28;20547;-75
2023/05/14 19:09:13;;;;;;;5.90;5.28;;;;;;;;;;10156569;28;20042;-75
2023/05/14 19:14:10;;;;;;;5.88;5.28;;;;;;;;;;10175877;28;20068;-75
2023/05/14 19:19:07;;;;;;;9.27;6.10;;;;;;;;;;10236828;28;20077;-75
2023/05/14 19:24:03;;;;;;;10.43;6.22;;;;;;;;;;10205237;28;20041;-75
2023/05/14 19:28:59;;;;;;;9.40;6.45;;;;;;;;;;10226939;28;20039;-75
2023/05/14 19:33:56;;;;;;;12.43;6.70;;;;;;;;;;10170051;28;20462;-74
2023/05/14 19:38:52;;;;;;;8.57;6.57;;;;;;;;;;10201830;28;20046;-75
2023/05/14 19:43:48;;;;;;;11.65;6.88;;;;;;;;;;10167660;28;20047;-74
2023/05/14 19:48:45;;;;;;;9.38;6.35;;;;;;;;;;10167727;28;20508;-75
2023/05/14 19:53:41;;;;;;;7.38;6.65;;;;;;;;;;10165294;28;20048;-74
2023/05/14 19:58:37;;;;;;;8.27;6.28;;;;;;;;;;10236160;28;20041;-74
2023/05/14 20:03:34;;;;;;;8.90;6.35;;;;;;;;;;10192887;28;20133;-74
2023/05/14 20:08:30;;;;;;;7.38;6.63;;;;;;;;;;10235241;28;20038;-74
2023/05/14 20:13:26;;;;;;;7.10;6.18;;;;;;;;;;10179768;28;20128;-74
2023/05/14 20:18:23;;;;;;;9.13;6.50;;;;;;;;;;10220923;28;20049;-74
2023/05/14 20:23:20;;;;;;;9.65;6.97;;;;;;;;;;10159671;28;20042;-74
2023/05/14 20:28:16;;;;;;;8.77;6.65;;;;;;;;;;10212189;28;20042;-74
2023/05/14 20:33:13;;;;;;;10.70;6.70;;;;;;;;;;10157421;28;20081;-70
2023/05/14 20:38:11;;;;;;;8.07;6.85;;;;;;;;;;10197437;28;20046;-70
2023/05/14 20:43:07;;;;;;;8.25;6.45;;;;;;;;;;10170079;28;20434;-70
2023/05/14 20:48:10;;;;;;;7.57;6.82;;;;;;;;;;10196814;28;20072;-70
2023/05/14 20:53:06;;;;;;;10.00;7.43;;;;;;;;;;10154745;28;20049;-70
2023/05/14 20:58:02;;;;;;;8.32;7.32;;;;;;;;;;10168651;28;20108;-70
2023/05/14 21:02:59;;;;;;;12.77;6.90;;;;;;;;;;10152844;28;20042;-70
2023/05/14 21:07:56;;;;;;;9.10;6.20;;;;;;;;;;10232721;28;20121;-70
2023/05/14 21:12:52;;;;;;;7.78;6.30;;;;;;;;;;10218626;28;20084;-70
2023/05/14 21:17:48;;;;;;;9.77;6.22;;;;;;;;;;10231796;28;20049;-70
2023/05/14 21:22:44;;;;;;;9.73;6.70;;;;;;;;;;10205270;28;20101;-70
2023/05/14 21:27:41;;;;;;;10.00;7.00;;;;;;;;;;10228109;28;20454;-70
2023/05/14 21:32:37;;;;;;;12.23;7.20;;;;;;;;;;10204329;28;20132;-70
2023/05/14 21:37:33;;;;;;;12.18;7.05;;;;;;;;;;10216325;28;20050;-70
2023/05/14 21:42:29;;;;;;;7.80;6.95;;;;;;;;;;10153231;28;20042;-70
2023/05/14 21:47:26;;;;;;;10.20;7.32;;;;;;;;;;10214860;28;20038;-70
2023/05/14 21:52:22;;;;;;;13.02;6.35;;;;;;;;;;10192904;28;20145;-70
2023/05/14 21:57:18;;;;;;;9.30;6.53;;;;;;;;;;10198757;28;20054;-70
2023/05/14 22:02:17;;;;;;;10.48;7.00;;;;;;;;;;10192656;28;20129;-70
2023/05/14 22:07:14;;;;;;;10.05;6.55;;;;;;;;;;10163755;28;20129;-70
2023/05/14 22:12:10;;;;;;;8.20;6.45;;;;;;;;;;10152590;28;20046;-70
2023/05/14 22:17:07;;;;;;;10.07;7.30;;;;;;;;;;10218270;28;20057;-70
2023/05/14 22:22:03;;;;;;;10.18;7.32;;;;;;;;;;10215711;28;20385;-70
2023/05/14 22:26:59;;;;;;;12.68;8.23;;;;;;;;;;10216104;28;20042;-70
2023/05/14 22:31:58;;;;;;;10.20;7.03;;;;;;;;;;10209889;28;20096;-70
2023/05/14 22:36:54;;;;;;;10.48;6.68;;;;;;;;;;10221537;28;20429;-70
2023/05/14 22:41:53;;;;;;;7.63;6.82;;;;;;;;;;10180184;28;20592;-70
2023/05/14 22:46:53;;;;;;;11.80;9.23;;;;;;;;;;10220490;28;20046;-70
2023/05/14 22:51:51;;;;;;;9.07;7.20;;;;;;;;;;10178589;28;20064;-70
2023/05/14 22:56:47;;;;;;;10.32;7.70;;;;;;;;;;10218219;28;20056;-70
2023/05/14 23:01:43;;;;;;;9.15;7.40;;;;;;;;;;10158924;28;20539;-70
2023/05/14 23:06:43;;;;;;;7.22;6.53;;;;;;;;;;10200958;28;20053;-70
2023/05/14 23:11:39;;;;;;;9.80;7.55;;;;;;;;;;10158417;28;20464;-70
2023/05/14 23:16:35;;;;;;;9.55;7.68;;;;;;;;;;10174294;28;20105;-70
2023/05/14 23:21:32;;;;;;;8.73;7.63;;;;;;;;;;10157946;28;20062;-70
2023/05/14 23:26:28;;;;;;;10.32;8.07;;;;;;;;;;10172005;28;20073;-70
2023/05/14 23:31:24;;;;;;;10.00;8.23;;;;;;;;;;10157571;28;20053;-70
2023/05/14 23:36:21;;;;;;;10.68;8.65;;;;;;;;;;10210582;28;20167;-70
2023/05/14 23:41:17;;;;;;;8.90;7.82;;;;;;;;;;10236858;28;20565;-70